sensor_id;sensor_type;location;lat;lon;timestamp;temperature;humidity
14924;DHT22;7554;43.600;1.480;2022-07-30T00:00:49;22.70;1.00
14924;DHT22;7554;43.600;1.480;2022-07-30T00:03:16;22.70;1.00
14924;DHT22;7554;43.600;1.480;2022-07-30T00:05:44;22.70;1.00
14924;DHT22;7554;43.600;1.480;2022-07-30T00:08:11;22.70;1.00
14924;DHT22;7554;43.600;1.480;2022-07-30T00:10:39;22.80;1.00
14924;DHT22;7554;43.600;1.480;2022-07-30T00:13:06;22.70;1.00
14924;DHT22;7554;43.600;1.480;2022-07-30T00:15:35;22.70;1.00
14924;DHT22;7554;43.600;1.480;2022-07-30T00:18:03;22.70;1.00
14924;DHT22;7554;43.600;1.480;2022-07-30T00:20:32;22.80;1.00
14924;DHT22;7554;43.600;1.480;2022-07-30T00:23:02;22.70;1.00
14924;DHT22;7554;43.600;1.480;2022-07-30T00:25:30;22.80;1.00
14924;DHT22;7554;43.600;1.480;2022-07-30T00:27:57;22.80;1.00
14924;DHT22;7554;43.600;1.480;2022-07-30T00:30:25;22.80;1.00
14924;DHT22;7554;43.600;1.480;2022-07-30T00:32:55;22.70;1.00
14924;DHT22;7554;43.600;1.480;2022-07-30T00:35:22;22.70;1.00
14924;DHT22;7554;43.600;1.480;2022-07-30T00:37:49;22.70;1.00
14924;DHT22;7554;43.600;1.480;2022-07-30T00:40:17;22.80;1.00
14924;DHT22;7554;43.600;1.480;2022-07-30T00:42:47;22.80;1.00
14924;DHT22;7554;43.600;1.480;2022-07-30T00:45:15;22.80;1.00
14924;DHT22;7554;43.600;1.480;2022-07-30T00:47:43;22.80;1.00
14924;DHT22;7554;43.600;1.480;2022-07-30T00:50:14;22.80;1.00
14924;DHT22;7554;43.600;1.480;2022-07-30T00:52:43;22.70;1.00
14924;DHT22;7554;43.600;1.480;2022-07-30T00:55:13;22.70;1.00
14924;DHT22;7554;43.600;1.480;2022-07-30T00:57:41;22.70;1.00
14924;DHT22;7554;43.600;1.480;2022-07-30T01:00:14;22.80;1.00
14924;DHT22;7554;43.600;1.480;2022-07-30T01:02:42;22.70;1.00
14924;DHT22;7554;43.600;1.480;2022-07-30T01:05:11;22.70;1.00
14924;DHT22;7554;43.600;1.480;2022-07-30T01:07:39;22.80;1.00
14924;DHT22;7554;43.600;1.480;2022-07-30T01:10:09;22.70;1.00
14924;DHT22;7554;43.600;1.480;2022-07-30T01:12:37;22.80;1.00
14924;DHT22;7554;43.600;1.480;2022-07-30T01:15:06;22.80;1.00
14924;DHT22;7554;43.600;1.480;2022-07-30T01:17:34;22.80;1.00
14924;DHT22;7554;43.600;1.480;2022-07-30T01:20:05;22.80;1.00
14924;DHT22;7554;43.600;1.480;2022-07-30T01:22:41;22.80;1.00
14924;DHT22;7554;43.600;1.480;2022-07-30T01:25:15;22.70;1.00
14924;DHT22;7554;43.600;1.480;2022-07-30T01:27:47;22.70;1.00
14924;DHT22;7554;43.600;1.480;2022-07-30T01:30:19;22.60;1.00
14924;DHT22;7554;43.600;1.480;2022-07-30T01:32:48;22.60;1.00
14924;DHT22;7554;43.600;1.480;2022-07-30T01:35:19;22.60;1.00
14924;DHT22;7554;43.600;1.480;2022-07-30T01:37:48;22.60;1.00
14924;DHT22;7554;43.600;1.480;2022-07-30T01:40:18;22.50;1.00
14924;DHT22;7554;43.600;1.480;2022-07-30T01:42:50;22.50;1.00
14924;DHT22;7554;43.600;1.480;2022-07-30T01:45:22;22.50;1.00
14924;DHT22;7554;43.600;1.480;2022-07-30T01:47:51;22.50;1.00
14924;DHT22;7554;43.600;1.480;2022-07-30T01:50:19;22.40;1.00
14924;DHT22;7554;43.600;1.480;2022-07-30T01:52:50;22.50;1.00
14924;DHT22;7554;43.600;1.480;2022-07-30T01:55:22;22.40;1.00
14924;DHT22;7554;43.600;1.480;2022-07-30T01:57:53;22.40;1.00
14924;DHT22;7554;43.600;1.480;2022-07-30T02:00:22;22.30;1.00
14924;DHT22;7554;43.600;1.480;2022-07-30T02:02:50;22.30;1.00
14924;DHT22;7554;43.600;1.480;2022-07-30T02:05:19;22.30;1.00
14924;DHT22;7554;43.600;1.480;2022-07-30T02:07:51;22.40;1.00
14924;DHT22;7554;43.600;1.480;2022-07-30T02:10:28;22.40;1.00
14924;DHT22;7554;43.600;1.480;2022-07-30T02:12:59;22.40;1.00
14924;DHT22;7554;43.600;1.480;2022-07-30T02:15:33;22.40;1.00
14924;DHT22;7554;43.600;1.480;2022-07-30T02:18:05;22.40;1.00
14924;DHT22;7554;43.600;1.480;2022-07-30T02:20:34;22.30;1.00
14924;DHT22;7554;43.600;1.480;2022-07-30T02:23:05;22.30;1.00
14924;DHT22;7554;43.600;1.480;2022-07-30T02:25:34;22.40;1.00
14924;DHT22;7554;43.600;1.480;2022-07-30T02:28:07;22.30;1.00
14924;DHT22;7554;43.600;1.480;2022-07-30T02:30:39;22.30;1.00
14924;DHT22;7554;43.600;1.480;2022-07-30T02:33:08;22.30;1.00
14924;DHT22;7554;43.600;1.480;2022-07-30T02:35:37;22.30;1.00
14924;DHT22;7554;43.600;1.480;2022-07-30T02:38:06;22.30;1.00
14924;DHT22;7554;43.600;1.480;2022-07-30T02:40:34;22.20;1.00
14924;DHT22;7554;43.600;1.480;2022-07-30T02:43:02;22.30;1.00
14924;DHT22;7554;43.600;1.480;2022-07-30T02:45:31;22.20;1.00
14924;DHT22;7554;43.600;1.480;2022-07-30T02:48:03;22.30;1.00
14924;DHT22;7554;43.600;1.480;2022-07-30T02:50:32;22.20;1.00
14924;DHT22;7554;43.600;1.480;2022-07-30T02:53:00;22.30;1.00
14924;DHT22;7554;43.600;1.480;2022-07-30T02:55:30;22.20;1.00
14924;DHT22;7554;43.600;1.480;2022-07-30T02:57:58;22.30;1.00
14924;DHT22;7554;43.600;1.480;2022-07-30T03:00:28;22.20;1.00
14924;DHT22;7554;43.600;1.480;2022-07-30T03:02:58;22.20;1.00
14924;DHT22;7554;43.600;1.480;2022-07-30T03:05:27;22.20;1.00
14924;DHT22;7554;43.600;1.480;2022-07-30T03:07:57;22.20;1.00
14924;DHT22;7554;43.600;1.480;2022-07-30T03:10:25;22.20;1.00
14924;DHT22;7554;43.600;1.480;2022-07-30T03:12:53;22.20;1.00
14924;DHT22;7554;43.600;1.480;2022-07-30T03:15:21;22.20;1.00
14924;DHT22;7554;43.600;1.480;2022-07-30T03:17:51;22.20;1.00
14924;DHT22;7554;43.600;1.480;2022-07-30T03:20:26;22.20;1.00
14924;DHT22;7554;43.600;1.480;2022-07-30T03:22:57;22.20;1.00
14924;DHT22;7554;43.600;1.480;2022-07-30T03:25:26;22.10;1.00
14924;DHT22;7554;43.600;1.480;2022-07-30T03:27:54;22.10;1.00
14924;DHT22;7554;43.600;1.480;2022-07-30T03:30:25;22.10;1.00
14924;DHT22;7554;43.600;1.480;2022-07-30T03:32:53;22.10;1.00
14924;DHT22;7554;43.600;1.480;2022-07-30T03:35:23;22.10;1.00
14924;DHT22;7554;43.600;1.480;2022-07-30T03:37:51;22.10;1.00
14924;DHT22;7554;43.600;1.480;2022-07-30T03:40:19;22.10;1.00
14924;DHT22;7554;43.600;1.480;2022-07-30T03:42:47;22.00;1.00
14924;DHT22;7554;43.600;1.480;2022-07-30T03:45:15;22.00;1.00
14924;DHT22;7554;43.600;1.480;2022-07-30T03:47:43;22.00;1.00
14924;DHT22;7554;43.600;1.480;2022-07-30T03:50:12;22.00;1.00
14924;DHT22;7554;43.600;1.480;2022-07-30T03:52:42;22.00;1.00
14924;DHT22;7554;43.600;1.480;2022-07-30T03:55:10;22.00;1.00
14924;DHT22;7554;43.600;1.480;2022-07-30T03:57:38;22.00;1.00
14924;DHT22;7554;43.600;1.480;2022-07-30T04:00:11;22.00;1.00
14924;DHT22;7554;43.600;1.480;2022-07-30T04:02:42;22.00;1.00
14924;DHT22;7554;43.600;1.480;2022-07-30T04:05:11;22.00;1.00
14924;DHT22;7554;43.600;1.480;2022-07-30T04:07:38;22.00;1.00
14924;DHT22;7554;43.600;1.480;2022-07-30T04:10:08;21.90;1.00
14924;DHT22;7554;43.600;1.480;2022-07-30T04:12:35;21.90;1.00
14924;DHT22;7554;43.600;1.480;2022-07-30T04:15:04;21.90;1.00
14924;DHT22;7554;43.600;1.480;2022-07-30T04:17:35;21.80;1.00
14924;DHT22;7554;43.600;1.480;2022-07-30T04:20:07;21.80;1.00
14924;DHT22;7554;43.600;1.480;2022-07-30T04:22:37;21.80;1.00
14924;DHT22;7554;43.600;1.480;2022-07-30T04:25:07;21.70;1.00
14924;DHT22;7554;43.600;1.480;2022-07-30T04:27:35;21.70;1.00
14924;DHT22;7554;43.600;1.480;2022-07-30T04:30:04;21.60;1.00
14924;DHT22;7554;43.600;1.480;2022-07-30T04:32:32;21.60;1.00
14924;DHT22;7554;43.600;1.480;2022-07-30T04:34:59;21.50;1.00
14924;DHT22;7554;43.600;1.480;2022-07-30T04:37:27;21.50;1.00
14924;DHT22;7554;43.600;1.480;2022-07-30T04:39:55;21.50;1.00
14924;DHT22;7554;43.600;1.480;2022-07-30T04:42:24;21.40;1.00
14924;DHT22;7554;43.600;1.480;2022-07-30T04:44:52;21.40;1.00
14924;DHT22;7554;43.600;1.480;2022-07-30T04:47:21;21.30;1.00
14924;DHT22;7554;43.600;1.480;2022-07-30T04:49:48;21.30;1.00
14924;DHT22;7554;43.600;1.480;2022-07-30T04:52:17;21.40;1.00
14924;DHT22;7554;43.600;1.480;2022-07-30T04:54:47;21.40;1.00
14924;DHT22;7554;43.600;1.480;2022-07-30T04:57:18;21.50;1.00
14924;DHT22;7554;43.600;1.480;2022-07-30T04:59:48;21.60;1.00
14924;DHT22;7554;43.600;1.480;2022-07-30T05:02:18;21.90;1.00
14924;DHT22;7554;43.600;1.480;2022-07-30T05:04:48;21.90;1.00
14924;DHT22;7554;43.600;1.480;2022-07-30T05:14:00;21.90;1.00
14924;DHT22;7554;43.600;1.480;2022-07-30T05:16:29;21.90;1.00
14924;DHT22;7554;43.600;1.480;2022-07-30T05:18:58;22.00;1.00
14924;DHT22;7554;43.600;1.480;2022-07-30T05:21:26;22.00;1.00
14924;DHT22;7554;43.600;1.480;2022-07-30T05:23:53;22.10;1.00
14924;DHT22;7554;43.600;1.480;2022-07-30T05:26:20;22.10;1.00
14924;DHT22;7554;43.600;1.480;2022-07-30T05:28:48;22.10;1.00
14924;DHT22;7554;43.600;1.480;2022-07-30T05:31:15;22.20;1.00
14924;DHT22;7554;43.600;1.480;2022-07-30T05:33:44;22.40;1.00
14924;DHT22;7554;43.600;1.480;2022-07-30T05:36:12;22.70;1.00
14924;DHT22;7554;43.600;1.480;2022-07-30T05:38:39;22.80;1.00
14924;DHT22;7554;43.600;1.480;2022-07-30T05:41:06;23.20;1.00
14924;DHT22;7554;43.600;1.480;2022-07-30T05:43:34;24.50;1.00
14924;DHT22;7554;43.600;1.480;2022-07-30T05:46:02;25.80;1.00
14924;DHT22;7554;43.600;1.480;2022-07-30T05:48:29;26.20;1.00
14924;DHT22;7554;43.600;1.480;2022-07-30T05:51:01;25.00;1.00
14924;DHT22;7554;43.600;1.480;2022-07-30T05:53:29;24.30;1.00
14924;DHT22;7554;43.600;1.480;2022-07-30T05:55:57;24.00;1.00
14924;DHT22;7554;43.600;1.480;2022-07-30T05:58:25;24.20;1.00
14924;DHT22;7554;43.600;1.480;2022-07-30T06:00:52;24.00;1.00
14924;DHT22;7554;43.600;1.480;2022-07-30T06:03:19;23.90;1.00
14924;DHT22;7554;43.600;1.480;2022-07-30T06:05:47;23.80;1.00
14924;DHT22;7554;43.600;1.480;2022-07-30T06:08:16;23.60;1.00
14924;DHT22;7554;43.600;1.480;2022-07-30T06:10:43;23.40;1.00
14924;DHT22;7554;43.600;1.480;2022-07-30T06:13:10;23.40;1.00
14924;DHT22;7554;43.600;1.480;2022-07-30T06:15:38;23.30;1.00
14924;DHT22;7554;43.600;1.480;2022-07-30T06:18:05;23.40;1.00
14924;DHT22;7554;43.600;1.480;2022-07-30T06:20:33;23.40;1.00
14924;DHT22;7554;43.600;1.480;2022-07-30T06:23:00;23.20;1.00
14924;DHT22;7554;43.600;1.480;2022-07-30T06:25:29;23.30;1.00
14924;DHT22;7554;43.600;1.480;2022-07-30T06:27:57;23.40;1.00
14924;DHT22;7554;43.600;1.480;2022-07-30T06:30:24;23.60;1.00
14924;DHT22;7554;43.600;1.480;2022-07-30T06:32:51;23.70;1.00
14924;DHT22;7554;43.600;1.480;2022-07-30T06:35:19;23.70;1.00
14924;DHT22;7554;43.600;1.480;2022-07-30T06:37:46;23.80;1.00
14924;DHT22;7554;43.600;1.480;2022-07-30T06:40:14;23.80;1.00
14924;DHT22;7554;43.600;1.480;2022-07-30T06:42:42;23.90;1.00
14924;DHT22;7554;43.600;1.480;2022-07-30T06:45:10;24.00;1.00
14924;DHT22;7554;43.600;1.480;2022-07-30T06:47:38;24.00;1.00
14924;DHT22;7554;43.600;1.480;2022-07-30T06:50:06;24.20;1.00
14924;DHT22;7554;43.600;1.480;2022-07-30T06:52:34;24.40;1.00
14924;DHT22;7554;43.600;1.480;2022-07-30T06:55:02;24.70;1.00
14924;DHT22;7554;43.600;1.480;2022-07-30T06:57:29;24.90;1.00
14924;DHT22;7554;43.600;1.480;2022-07-30T06:59:58;25.10;1.00
14924;DHT22;7554;43.600;1.480;2022-07-30T07:02:25;25.70;1.00
14924;DHT22;7554;43.600;1.480;2022-07-30T07:04:53;26.20;1.00
14924;DHT22;7554;43.600;1.480;2022-07-30T07:07:20;26.20;1.00
14924;DHT22;7554;43.600;1.480;2022-07-30T07:09:48;28.10;1.00
14924;DHT22;7554;43.600;1.480;2022-07-30T07:12:15;27.70;1.00
14924;DHT22;7554;43.600;1.480;2022-07-30T07:14:42;27.50;1.00
14924;DHT22;7554;43.600;1.480;2022-07-30T07:17:12;27.60;1.00
14924;DHT22;7554;43.600;1.480;2022-07-30T07:19:39;27.40;1.00
14924;DHT22;7554;43.600;1.480;2022-07-30T07:22:07;27.30;1.00
14924;DHT22;7554;43.600;1.480;2022-07-30T07:24:34;27.20;1.00
14924;DHT22;7554;43.600;1.480;2022-07-30T07:27:01;27.00;1.00
14924;DHT22;7554;43.600;1.480;2022-07-30T07:29:29;27.20;1.00
14924;DHT22;7554;43.600;1.480;2022-07-30T07:31:56;27.40;1.00
14924;DHT22;7554;43.600;1.480;2022-07-30T07:34:25;28.40;1.00
14924;DHT22;7554;43.600;1.480;2022-07-30T07:36:52;28.60;1.00
14924;DHT22;7554;43.600;1.480;2022-07-30T07:39:20;28.80;1.00
14924;DHT22;7554;43.600;1.480;2022-07-30T07:41:47;29.40;1.00
14924;DHT22;7554;43.600;1.480;2022-07-30T07:44:15;31.00;1.00
14924;DHT22;7554;43.600;1.480;2022-07-30T07:46:42;31.30;1.00
14924;DHT22;7554;43.600;1.480;2022-07-30T07:49:09;35.90;1.00
14924;DHT22;7554;43.600;1.480;2022-07-30T07:51:38;38.80;1.00
14924;DHT22;7554;43.600;1.480;2022-07-30T07:54:06;38.00;1.00
14924;DHT22;7554;43.600;1.480;2022-07-30T07:56:33;34.90;1.00
14924;DHT22;7554;43.600;1.480;2022-07-30T07:59:01;34.60;1.00
14924;DHT22;7554;43.600;1.480;2022-07-30T08:01:28;35.80;1.00
14924;DHT22;7554;43.600;1.480;2022-07-30T08:03:55;38.20;1.00
14924;DHT22;7554;43.600;1.480;2022-07-30T08:06:23;36.70;1.00
14924;DHT22;7554;43.600;1.480;2022-07-30T08:08:51;34.20;1.00
14924;DHT22;7554;43.600;1.480;2022-07-30T08:11:20;32.60;1.00
14924;DHT22;7554;43.600;1.480;2022-07-30T08:13:47;31.80;1.00
14924;DHT22;7554;43.600;1.480;2022-07-30T08:16:14;34.80;1.00
14924;DHT22;7554;43.600;1.480;2022-07-30T08:18:42;38.00;1.00
14924;DHT22;7554;43.600;1.480;2022-07-30T08:21:09;39.00;1.00
14924;DHT22;7554;43.600;1.480;2022-07-30T08:23:37;40.10;1.00
14924;DHT22;7554;43.600;1.480;2022-07-30T08:26:06;40.40;1.00
14924;DHT22;7554;43.600;1.480;2022-07-30T08:28:34;41.80;1.00
14924;DHT22;7554;43.600;1.480;2022-07-30T08:31:02;41.70;1.00
14924;DHT22;7554;43.600;1.480;2022-07-30T08:33:29;42.30;1.00
14924;DHT22;7554;43.600;1.480;2022-07-30T08:35:57;42.40;1.00
14924;DHT22;7554;43.600;1.480;2022-07-30T08:38:24;42.40;1.00
14924;DHT22;7554;43.600;1.480;2022-07-30T08:40:54;42.80;1.00
14924;DHT22;7554;43.600;1.480;2022-07-30T08:43:23;42.90;1.00
14924;DHT22;7554;43.600;1.480;2022-07-30T08:45:52;41.10;1.00
14924;DHT22;7554;43.600;1.480;2022-07-30T08:48:20;38.10;1.00
14924;DHT22;7554;43.600;1.480;2022-07-30T08:50:49;36.60;1.00
14924;DHT22;7554;43.600;1.480;2022-07-30T08:53:17;37.60;1.00
14924;DHT22;7554;43.600;1.480;2022-07-30T08:55:45;40.20;1.00
14924;DHT22;7554;43.600;1.480;2022-07-30T08:58:25;40.70;1.00
14924;DHT22;7554;43.600;1.480;2022-07-30T09:00:54;42.50;1.00
14924;DHT22;7554;43.600;1.480;2022-07-30T09:03:22;43.70;1.00
14924;DHT22;7554;43.600;1.480;2022-07-30T09:05:49;43.20;1.00
14924;DHT22;7554;43.600;1.480;2022-07-30T09:08:16;42.90;1.00
14924;DHT22;7554;43.600;1.480;2022-07-30T09:10:44;42.30;1.00
14924;DHT22;7554;43.600;1.480;2022-07-30T09:13:25;42.60;1.00
14924;DHT22;7554;43.600;1.480;2022-07-30T09:15:53;42.80;1.00
14924;DHT22;7554;43.600;1.480;2022-07-30T09:18:30;43.20;1.00
14924;DHT22;7554;43.600;1.480;2022-07-30T09:21:13;43.70;1.00
14924;DHT22;7554;43.600;1.480;2022-07-30T09:23:54;43.40;1.00
14924;DHT22;7554;43.600;1.480;2022-07-30T09:26:21;43.00;1.00
14924;DHT22;7554;43.600;1.480;2022-07-30T09:28:50;43.20;1.00
14924;DHT22;7554;43.600;1.480;2022-07-30T09:31:19;43.30;1.00
14924;DHT22;7554;43.600;1.480;2022-07-30T09:33:47;43.30;1.00
14924;DHT22;7554;43.600;1.480;2022-07-30T09:36:16;43.30;1.00
14924;DHT22;7554;43.600;1.480;2022-07-30T09:38:46;43.60;1.00
14924;DHT22;7554;43.600;1.480;2022-07-30T09:41:15;42.70;1.00
14924;DHT22;7554;43.600;1.480;2022-07-30T09:43:44;42.60;1.00
14924;DHT22;7554;43.600;1.480;2022-07-30T09:46:13;43.20;1.00
14924;DHT22;7554;43.600;1.480;2022-07-30T09:48:41;42.50;1.00
14924;DHT22;7554;43.600;1.480;2022-07-30T09:51:09;41.60;1.00
14924;DHT22;7554;43.600;1.480;2022-07-30T09:53:52;39.50;1.00
14924;DHT22;7554;43.600;1.480;2022-07-30T09:56:24;36.20;1.00
14924;DHT22;7554;43.600;1.480;2022-07-30T09:58:52;34.20;1.00
14924;DHT22;7554;43.600;1.480;2022-07-30T10:01:21;32.40;1.00
14924;DHT22;7554;43.600;1.480;2022-07-30T10:03:49;32.00;1.00
14924;DHT22;7554;43.600;1.480;2022-07-30T10:06:16;32.40;1.00
14924;DHT22;7554;43.600;1.480;2022-07-30T10:08:45;32.40;1.00
14924;DHT22;7554;43.600;1.480;2022-07-30T10:11:17;32.30;1.00
14924;DHT22;7554;43.600;1.480;2022-07-30T10:13:47;32.10;1.00
14924;DHT22;7554;43.600;1.480;2022-07-30T10:16:16;31.50;1.00
14924;DHT22;7554;43.600;1.480;2022-07-30T10:18:45;31.30;1.00
14924;DHT22;7554;43.600;1.480;2022-07-30T10:21:12;31.40;1.00
14924;DHT22;7554;43.600;1.480;2022-07-30T10:23:40;31.20;1.00
14924;DHT22;7554;43.600;1.480;2022-07-30T10:26:08;31.70;1.00
14924;DHT22;7554;43.600;1.480;2022-07-30T10:28:36;32.00;1.00
14924;DHT22;7554;43.600;1.480;2022-07-30T10:31:06;32.00;1.00
14924;DHT22;7554;43.600;1.480;2022-07-30T10:33:34;32.00;1.00
14924;DHT22;7554;43.600;1.480;2022-07-30T10:36:03;31.90;1.00
14924;DHT22;7554;43.600;1.480;2022-07-30T10:38:32;31.90;1.00
14924;DHT22;7554;43.600;1.480;2022-07-30T10:41:04;31.70;1.00
14924;DHT22;7554;43.600;1.480;2022-07-30T10:43:54;31.90;1.00
14924;DHT22;7554;43.600;1.480;2022-07-30T10:46:38;31.50;1.00
14924;DHT22;7554;43.600;1.480;2022-07-30T10:49:11;31.40;1.00
14924;DHT22;7554;43.600;1.480;2022-07-30T10:51:45;30.90;1.00
14924;DHT22;7554;43.600;1.480;2022-07-30T10:54:38;31.20;1.00
14924;DHT22;7554;43.600;1.480;2022-07-30T10:57:08;30.90;1.00
14924;DHT22;7554;43.600;1.480;2022-07-30T11:00:11;31.10;1.00
14924;DHT22;7554;43.600;1.480;2022-07-30T11:03:16;31.00;1.00
14924;DHT22;7554;43.600;1.480;2022-07-30T11:05:44;30.50;1.00
14924;DHT22;7554;43.600;1.480;2022-07-30T11:08:31;30.60;1.00
14924;DHT22;7554;43.600;1.480;2022-07-30T11:10:59;30.80;1.00
14924;DHT22;7554;43.600;1.480;2022-07-30T11:13:51;30.50;1.00
14924;DHT22;7554;43.600;1.480;2022-07-30T11:16:20;30.90;1.00
14924;DHT22;7554;43.600;1.480;2022-07-30T11:19:05;30.80;1.00
14924;DHT22;7554;43.600;1.480;2022-07-30T11:21:33;31.00;1.00
14924;DHT22;7554;43.600;1.480;2022-07-30T11:24:03;30.60;1.00
14924;DHT22;7554;43.600;1.480;2022-07-30T11:26:48;30.60;1.00
14924;DHT22;7554;43.600;1.480;2022-07-30T11:29:36;30.70;1.00
14924;DHT22;7554;43.600;1.480;2022-07-30T11:32:24;31.10;1.00
14924;DHT22;7554;43.600;1.480;2022-07-30T11:34:54;31.10;1.00
14924;DHT22;7554;43.600;1.480;2022-07-30T11:37:55;30.90;1.00
14924;DHT22;7554;43.600;1.480;2022-07-30T11:40:24;30.90;1.00
14924;DHT22;7554;43.600;1.480;2022-07-30T11:43:17;30.80;1.00
14924;DHT22;7554;43.600;1.480;2022-07-30T11:45:47;30.80;1.00
14924;DHT22;7554;43.600;1.480;2022-07-30T11:48:16;30.70;1.00
14924;DHT22;7554;43.600;1.480;2022-07-30T11:50:45;30.90;1.00
14924;DHT22;7554;43.600;1.480;2022-07-30T11:53:15;30.40;1.00
14924;DHT22;7554;43.600;1.480;2022-07-30T11:55:48;30.10;1.00
14924;DHT22;7554;43.600;1.480;2022-07-30T11:58:25;30.20;1.00
14924;DHT22;7554;43.600;1.480;2022-07-30T12:00:54;30.60;1.00
14924;DHT22;7554;43.600;1.480;2022-07-30T12:03:24;30.90;1.00
14924;DHT22;7554;43.600;1.480;2022-07-30T12:05:53;30.60;1.00
14924;DHT22;7554;43.600;1.480;2022-07-30T12:08:21;30.60;1.00
14924;DHT22;7554;43.600;1.480;2022-07-30T12:10:58;30.80;1.00
14924;DHT22;7554;43.600;1.480;2022-07-30T12:13:26;30.60;1.00
14924;DHT22;7554;43.600;1.480;2022-07-30T12:15:53;31.10;1.00
14924;DHT22;7554;43.600;1.480;2022-07-30T12:18:25;31.20;1.00
14924;DHT22;7554;43.600;1.480;2022-07-30T12:20:54;31.10;1.00
14924;DHT22;7554;43.600;1.480;2022-07-30T12:23:22;30.90;1.00
14924;DHT22;7554;43.600;1.480;2022-07-30T12:25:50;30.90;1.00
14924;DHT22;7554;43.600;1.480;2022-07-30T12:28:24;30.70;1.00
14924;DHT22;7554;43.600;1.480;2022-07-30T12:30:52;30.80;1.00
14924;DHT22;7554;43.600;1.480;2022-07-30T12:33:20;30.40;1.00
14924;DHT22;7554;43.600;1.480;2022-07-30T12:35:50;30.70;1.00
14924;DHT22;7554;43.600;1.480;2022-07-30T12:38:19;30.80;1.00
14924;DHT22;7554;43.600;1.480;2022-07-30T12:40:51;30.80;1.00
14924;DHT22;7554;43.600;1.480;2022-07-30T12:43:45;31.00;1.00
14924;DHT22;7554;43.600;1.480;2022-07-30T12:46:14;30.80;1.00
14924;DHT22;7554;43.600;1.480;2022-07-30T12:48:53;30.70;1.00
14924;DHT22;7554;43.600;1.480;2022-07-30T12:51:23;30.50;1.00
14924;DHT22;7554;43.600;1.480;2022-07-30T12:53:51;30.60;1.00
14924;DHT22;7554;43.600;1.480;2022-07-30T12:56:21;30.00;1.00
14924;DHT22;7554;43.600;1.480;2022-07-30T12:58:51;30.10;1.00
14924;DHT22;7554;43.600;1.480;2022-07-30T13:01:18;30.40;1.00
14924;DHT22;7554;43.600;1.480;2022-07-30T13:04:04;30.50;1.00
14924;DHT22;7554;43.600;1.480;2022-07-30T13:06:32;30.70;1.00
14924;DHT22;7554;43.600;1.480;2022-07-30T13:08:59;30.70;1.00
14924;DHT22;7554;43.600;1.480;2022-07-30T13:11:38;30.80;1.00
14924;DHT22;7554;43.600;1.480;2022-07-30T13:14:08;30.50;1.00
14924;DHT22;7554;43.600;1.480;2022-07-30T13:16:37;30.40;1.00
14924;DHT22;7554;43.600;1.480;2022-07-30T13:19:07;30.60;1.00
14924;DHT22;7554;43.600;1.480;2022-07-30T13:21:36;30.70;1.00
14924;DHT22;7554;43.600;1.480;2022-07-30T13:24:04;31.00;1.00
14924;DHT22;7554;43.600;1.480;2022-07-30T13:26:32;31.10;1.00
14924;DHT22;7554;43.600;1.480;2022-07-30T13:29:01;31.20;1.00
14924;DHT22;7554;43.600;1.480;2022-07-30T13:31:31;31.10;1.00
14924;DHT22;7554;43.600;1.480;2022-07-30T13:33:58;31.30;1.00
14924;DHT22;7554;43.600;1.480;2022-07-30T13:36:25;31.30;1.00
14924;DHT22;7554;43.600;1.480;2022-07-30T13:38:53;31.40;1.00
14924;DHT22;7554;43.600;1.480;2022-07-30T13:41:20;31.30;1.00
14924;DHT22;7554;43.600;1.480;2022-07-30T13:43:48;31.20;1.00
14924;DHT22;7554;43.600;1.480;2022-07-30T13:46:15;31.50;1.00
14924;DHT22;7554;43.600;1.480;2022-07-30T13:48:44;31.60;1.00
14924;DHT22;7554;43.600;1.480;2022-07-30T13:51:12;31.60;1.00
14924;DHT22;7554;43.600;1.480;2022-07-30T13:53:39;31.10;1.00
14924;DHT22;7554;43.600;1.480;2022-07-30T13:56:06;30.60;1.00
14924;DHT22;7554;43.600;1.480;2022-07-30T13:58:34;30.50;1.00
14924;DHT22;7554;43.600;1.480;2022-07-30T14:01:01;30.20;1.00
14924;DHT22;7554;43.600;1.480;2022-07-30T14:03:31;30.40;1.00
14924;DHT22;7554;43.600;1.480;2022-07-30T14:06:00;30.50;1.00
14924;DHT22;7554;43.600;1.480;2022-07-30T14:08:27;30.80;1.00
14924;DHT22;7554;43.600;1.480;2022-07-30T14:10:56;31.10;1.00
14924;DHT22;7554;43.600;1.480;2022-07-30T14:13:24;31.60;1.00
14924;DHT22;7554;43.600;1.480;2022-07-30T14:15:51;31.90;1.00
14924;DHT22;7554;43.600;1.480;2022-07-30T14:18:19;31.90;1.00
14924;DHT22;7554;43.600;1.480;2022-07-30T14:20:46;31.80;1.00
14924;DHT22;7554;43.600;1.480;2022-07-30T14:23:18;31.70;1.00
14924;DHT22;7554;43.600;1.480;2022-07-30T14:25:46;31.60;1.00
14924;DHT22;7554;43.600;1.480;2022-07-30T14:28:14;31.40;1.00
14924;DHT22;7554;43.600;1.480;2022-07-30T14:30:41;31.50;1.00
14924;DHT22;7554;43.600;1.480;2022-07-30T14:33:09;31.60;1.00
14924;DHT22;7554;43.600;1.480;2022-07-30T14:35:36;31.90;1.00
14924;DHT22;7554;43.600;1.480;2022-07-30T14:38:04;31.80;1.00
14924;DHT22;7554;43.600;1.480;2022-07-30T14:40:32;31.60;1.00
14924;DHT22;7554;43.600;1.480;2022-07-30T14:43:00;31.30;1.00
14924;DHT22;7554;43.600;1.480;2022-07-30T14:45:27;31.10;1.00
14924;DHT22;7554;43.600;1.480;2022-07-30T14:47:55;30.90;1.00
14924;DHT22;7554;43.600;1.480;2022-07-30T14:50:22;31.00;1.00
14924;DHT22;7554;43.600;1.480;2022-07-30T14:52:49;30.80;1.00
14924;DHT22;7554;43.600;1.480;2022-07-30T14:55:17;30.70;1.00
14924;DHT22;7554;43.600;1.480;2022-07-30T14:57:46;30.70;1.00
14924;DHT22;7554;43.600;1.480;2022-07-30T15:00:14;30.80;1.00
14924;DHT22;7554;43.600;1.480;2022-07-30T15:02:41;30.90;1.00
14924;DHT22;7554;43.600;1.480;2022-07-30T15:05:09;30.90;1.00
14924;DHT22;7554;43.600;1.480;2022-07-30T15:07:36;31.00;1.00
14924;DHT22;7554;43.600;1.480;2022-07-30T15:10:04;30.90;1.00
14924;DHT22;7554;43.600;1.480;2022-07-30T15:12:33;30.90;1.00
14924;DHT22;7554;43.600;1.480;2022-07-30T15:15:02;30.80;1.00
14924;DHT22;7554;43.600;1.480;2022-07-30T15:17:29;30.60;1.00
14924;DHT22;7554;43.600;1.480;2022-07-30T15:19:57;30.50;1.00
14924;DHT22;7554;43.600;1.480;2022-07-30T15:22:26;30.60;1.00
14924;DHT22;7554;43.600;1.480;2022-07-30T15:24:53;30.60;1.00
14924;DHT22;7554;43.600;1.480;2022-07-30T15:27:20;30.60;1.00
14924;DHT22;7554;43.600;1.480;2022-07-30T15:29:48;30.40;1.00
14924;DHT22;7554;43.600;1.480;2022-07-30T15:32:17;30.30;1.00
14924;DHT22;7554;43.600;1.480;2022-07-30T15:34:45;30.30;1.00
14924;DHT22;7554;43.600;1.480;2022-07-30T15:37:12;30.40;1.00
14924;DHT22;7554;43.600;1.480;2022-07-30T15:39:40;30.30;1.00
14924;DHT22;7554;43.600;1.480;2022-07-30T15:42:08;30.40;1.00
14924;DHT22;7554;43.600;1.480;2022-07-30T15:44:35;30.60;1.00
14924;DHT22;7554;43.600;1.480;2022-07-30T15:47:03;30.50;1.00
14924;DHT22;7554;43.600;1.480;2022-07-30T15:49:32;30.00;1.00
14924;DHT22;7554;43.600;1.480;2022-07-30T15:51:59;30.10;1.00
14924;DHT22;7554;43.600;1.480;2022-07-30T15:54:27;30.20;1.00
14924;DHT22;7554;43.600;1.480;2022-07-30T15:56:55;30.30;1.00
14924;DHT22;7554;43.600;1.480;2022-07-30T15:59:25;30.20;1.00
14924;DHT22;7554;43.600;1.480;2022-07-30T16:01:52;30.40;1.00
14924;DHT22;7554;43.600;1.480;2022-07-30T16:04:19;30.30;1.00
14924;DHT22;7554;43.600;1.480;2022-07-30T16:06:50;30.30;1.00
14924;DHT22;7554;43.600;1.480;2022-07-30T16:09:22;30.00;1.00
14924;DHT22;7554;43.600;1.480;2022-07-30T16:11:50;29.90;1.00
14924;DHT22;7554;43.600;1.480;2022-07-30T16:14:17;30.00;1.00
14924;DHT22;7554;43.600;1.480;2022-07-30T16:16:44;30.10;1.00
14924;DHT22;7554;43.600;1.480;2022-07-30T16:19:12;30.00;1.00
14924;DHT22;7554;43.600;1.480;2022-07-30T16:21:39;30.10;1.00
14924;DHT22;7554;43.600;1.480;2022-07-30T16:24:08;30.00;1.00